Terminal Aerodrome Forecast
Issued by NWS Cleveland, OH

Home | Current Version | Previous Version | Text Only | Print | Product List | Glossary Off
Versions: 1 2 3 4 5 6 7 8 9 10 11 12 13 14 15 16 17 18 19 20

298
FTUS41 KCLE 271518 AAB
TAFERI
TAF AMD
KERI 271518Z 2715/2812 24008KT P6SM OVC015
     FM271800 24008KT P6SM BKN025
     FM272200 VRB03KT P6SM BKN050
     FM280800 10005KT 6SM -RA OVC015
     FM281000 05005KT 3SM -RA BR OVC008=

USA.gov is the U.S. government's official web portal to all federal, state and local government web resources and services.